createdAt,value
2023-01-19T00:00:40.347Z,98579.31
2023-01-19T00:03:16.071Z,98594.97
2023-01-19T00:05:43.924Z,98603.66
2023-01-19T00:08:16.865Z,98608.13
2023-01-19T00:10:46.047Z,98610.47
2023-01-19T00:13:13.175Z,98615.47
2023-01-19T00:15:40.886Z,98616.66
2023-01-19T00:18:09.079Z,98627.38
2023-01-19T00:20:36.996Z,98622.84
2023-01-19T00:23:04.687Z,98619.03
2023-01-19T00:25:31.449Z,98620.44
2023-01-19T00:28:00.437Z,98633.84
2023-01-19T00:30:27.787Z,98636.00
2023-01-19T00:32:54.238Z,98639.59
2023-01-19T00:35:20.692Z,98639.66
2023-01-19T00:37:47.217Z,98650.13
2023-01-19T00:40:14.266Z,98652.56
2023-01-19T00:42:41.292Z,98652.94
2023-01-19T00:45:09.877Z,98666.72
2023-01-19T00:47:36.366Z,98670.13
2023-01-19T00:50:03.231Z,98663.59
2023-01-19T00:52:29.767Z,98666.53
2023-01-19T00:54:56.326Z,98656.72
2023-01-19T00:57:23.455Z,98660.84
2023-01-19T00:59:49.996Z,98650.88
2023-01-19T01:02:16.651Z,98648.97
2023-01-19T01:04:43.258Z,98651.84
2023-01-19T01:07:09.793Z,98651.41
2023-01-19T01:09:36.380Z,98659.00
2023-01-19T01:12:03.219Z,98652.78
2023-01-19T01:14:32.279Z,98655.41
2023-01-19T01:16:58.827Z,98650.19
2023-01-19T01:19:25.403Z,98647.69
2023-01-19T01:21:51.888Z,98646.03
2023-01-19T01:24:18.808Z,98639.97
2023-01-19T01:26:45.275Z,98645.53
2023-01-19T01:29:12.223Z,98638.66
2023-01-19T01:31:38.748Z,98633.25
2023-01-19T01:34:05.513Z,98636.16
2023-01-19T01:36:33.463Z,98641.13
2023-01-19T01:39:00.267Z,98631.28
2023-01-19T01:41:27.534Z,98632.13
2023-01-19T01:43:58.530Z,98629.50
2023-01-19T01:46:26.889Z,98628.09
2023-01-19T01:49:15.792Z,98626.69
2023-01-19T01:51:48.037Z,98627.63
2023-01-19T01:54:27.491Z,98624.31
2023-01-19T01:56:55.938Z,98618.97
2023-01-19T01:59:26.113Z,98621.94
2023-01-19T02:02:14.884Z,98621.13
2023-01-19T02:04:51.157Z,98623.28
2023-01-19T02:07:45.464Z,98615.31
2023-01-19T02:10:30.630Z,98606.03
2023-01-19T02:13:16.216Z,98611.78
2023-01-19T02:15:42.702Z,98617.28
2023-01-19T02:18:09.285Z,98622.03
2023-01-19T02:20:35.897Z,98628.34
2023-01-19T02:23:04.086Z,98622.28
2023-01-19T02:25:30.627Z,98616.34
2023-01-19T02:27:57.111Z,98621.81
2023-01-19T02:30:24.110Z,98620.63
2023-01-19T02:32:50.623Z,98620.63
2023-01-19T02:35:17.243Z,98619.78
2023-01-19T02:37:44.334Z,98623.47
2023-01-19T02:40:15.537Z,98626.81
2023-01-19T02:42:52.238Z,98627.63
2023-01-19T02:45:21.252Z,98622.16
2023-01-19T02:47:50.761Z,98630.84
2023-01-19T02:50:34.210Z,98628.22
2023-01-19T02:53:11.598Z,98634.16
2023-01-19T02:55:39.512Z,98633.91
2023-01-19T02:58:08.342Z,98644.34
2023-01-19T03:00:52.647Z,98637.91
2023-01-19T03:03:34.800Z,98639.22
2023-01-19T03:06:08.907Z,98641.47
2023-01-19T03:08:45.318Z,98628.53
2023-01-19T03:11:12.945Z,98621.06
2023-01-19T03:13:47.917Z,98616.06
2023-01-19T03:16:26.993Z,98617.03
2023-01-19T03:19:01.935Z,98618.19
2023-01-19T03:21:28.880Z,98619.25
2023-01-19T03:23:57.557Z,98632.47
2023-01-19T03:26:29.850Z,98638.66
2023-01-19T03:28:58.060Z,98641.28
2023-01-19T03:31:26.491Z,98638.66
2023-01-19T03:33:59.666Z,98642.81
2023-01-19T03:36:33.036Z,98655.75
2023-01-19T03:39:01.341Z,98650.28
2023-01-19T03:41:29.087Z,98648.59
2023-01-19T03:43:56.275Z,98650.50
2023-01-19T03:46:23.779Z,98651.09
2023-01-19T03:48:50.470Z,98658.47
2023-01-19T03:51:17.206Z,98667.97
2023-01-19T03:53:43.720Z,98670.97
2023-01-19T03:56:17.905Z,98670.84
2023-01-19T03:58:44.690Z,98674.16
2023-01-19T04:01:11.435Z,98675.00
2023-01-19T04:03:38.057Z,98675.09
2023-01-19T04:06:04.739Z,98687.56
2023-01-19T04:08:31.675Z,98688.78
2023-01-19T04:10:58.311Z,98690.69
2023-01-19T04:13:27.047Z,98694.97
2023-01-19T04:15:53.795Z,98695.66
2023-01-19T04:18:20.247Z,98697.34
2023-01-19T04:20:46.761Z,98697.09
2023-01-19T04:23:13.198Z,98705.66
2023-01-19T04:25:40.804Z,98699.59
2023-01-19T04:28:07.346Z,98699.44
2023-01-19T04:30:33.852Z,98703.75
2023-01-19T04:33:00.647Z,98709.09
2023-01-19T04:35:27.356Z,98718.94
2023-01-19T04:37:53.806Z,98711.69
2023-01-19T04:40:20.445Z,98717.75
2023-01-19T04:42:47.150Z,98716.91
2023-01-19T04:45:14.186Z,98724.16
2023-01-19T04:47:42.775Z,98722.41
2023-01-19T04:50:10.617Z,98719.38
2023-01-19T04:52:37.264Z,98728.22
2023-01-19T04:55:05.045Z,98730.94
2023-01-19T04:57:31.791Z,98747.50
2023-01-19T04:59:58.749Z,98738.94
2023-01-19T05:02:25.464Z,98737.03
2023-01-19T05:04:52.044Z,98739.50
2023-01-19T05:07:18.617Z,98748.06
2023-01-19T05:09:45.224Z,98745.34
2023-01-19T05:12:11.916Z,98747.44
2023-01-19T05:14:38.769Z,98748.13
2023-01-19T05:17:05.353Z,98758.94
2023-01-19T05:19:31.980Z,98759.72
2023-01-19T05:21:58.450Z,98749.22
2023-01-19T05:24:24.916Z,98745.78
2023-01-19T05:26:51.401Z,98739.19
2023-01-19T05:29:17.836Z,98744.88
2023-01-19T05:31:44.287Z,98741.38
2023-01-19T05:34:11.564Z,98744.09
2023-01-19T05:36:38.094Z,98754.97
2023-01-19T05:39:04.702Z,98769.84
2023-01-19T05:41:31.382Z,98770.28
2023-01-19T05:43:57.987Z,98766.53
2023-01-19T05:46:24.480Z,98779.19
2023-01-19T05:48:51.388Z,98769.16
2023-01-19T05:51:17.897Z,98768.28
2023-01-19T05:53:44.794Z,98768.00
2023-01-19T05:56:11.702Z,98771.59
2023-01-19T05:58:41.422Z,98768.00
2023-01-19T06:01:10.027Z,98773.00
2023-01-19T06:03:37.049Z,98784.81
2023-01-19T06:06:04.070Z,98790.44
2023-01-19T06:08:30.590Z,98795.63
2023-01-19T06:10:57.246Z,98787.31
2023-01-19T06:13:23.745Z,98785.06
2023-01-19T06:15:56.886Z,98794.97
2023-01-19T06:18:23.606Z,98803.28
2023-01-19T06:20:50.097Z,98811.13
2023-01-19T06:23:16.587Z,98824.75
2023-01-19T06:25:43.121Z,98840.19
2023-01-19T06:28:09.669Z,98841.88
2023-01-19T06:30:36.142Z,98848.84
2023-01-19T06:33:02.828Z,98855.19
2023-01-19T06:35:29.565Z,98853.75
2023-01-19T06:37:56.041Z,98852.81
2023-01-19T06:40:22.554Z,98859.34
2023-01-19T06:42:49.657Z,98862.06
2023-01-19T06:45:16.373Z,98862.06
2023-01-19T06:47:42.853Z,98871.38
2023-01-19T06:50:09.942Z,98876.72
2023-01-19T06:52:42.139Z,98870.16
2023-01-19T06:55:10.896Z,98877.56
2023-01-19T06:57:41.257Z,98878.38
2023-01-19T07:00:09.086Z,98864.81
2023-01-19T07:02:36.946Z,98871.59
2023-01-19T07:05:04.264Z,98862.59
2023-01-19T07:07:31.263Z,98861.50
2023-01-19T07:09:57.740Z,98862.19
2023-01-19T07:12:24.408Z,98860.13
2023-01-19T07:14:51.708Z,98851.84
2023-01-19T07:17:18.975Z,98848.50
2023-01-19T07:19:46.522Z,98842.19
2023-01-19T07:22:13.095Z,98850.91
2023-01-19T07:24:40.223Z,98862.66
2023-01-19T07:27:06.804Z,98857.69
2023-01-19T07:29:33.518Z,98853.00
2023-01-19T07:32:00.255Z,98859.44
2023-01-19T07:34:26.915Z,98849.69
2023-01-19T07:36:53.668Z,98858.38
2023-01-19T07:39:20.263Z,98860.13
2023-01-19T07:41:48.837Z,98857.75
2023-01-19T07:44:15.729Z,98856.03
2023-01-19T07:46:43.354Z,98864.25
2023-01-19T07:49:10.063Z,98867.13
2023-01-19T07:51:36.767Z,98871.72
2023-01-19T07:54:03.550Z,98881.44
2023-01-19T07:56:33.611Z,98889.50
2023-01-19T07:59:00.404Z,98888.22
2023-01-19T08:01:27.205Z,98902.09
2023-01-19T08:03:53.829Z,98911.50
2023-01-19T08:06:22.340Z,98915.03
2023-01-19T08:08:48.959Z,98904.75
2023-01-19T08:11:15.687Z,98903.53
2023-01-19T08:13:43.318Z,98900.47
2023-01-19T08:16:10.055Z,98901.69
2023-01-19T08:18:36.644Z,98892.75
2023-01-19T08:21:03.395Z,98884.44
2023-01-19T08:23:29.871Z,98884.53
2023-01-19T08:25:56.395Z,98886.44
2023-01-19T08:28:23.112Z,98880.06
2023-01-19T08:30:54.457Z,98880.69
2023-01-19T08:33:25.244Z,98870.47
2023-01-19T08:35:53.032Z,98872.94
2023-01-19T08:38:20.161Z,98876.66
2023-01-19T08:40:46.702Z,98874.38
2023-01-19T08:43:15.088Z,98885.19
2023-01-19T08:45:48.116Z,98873.41
2023-01-19T08:48:16.339Z,98872.41
2023-01-19T08:50:45.140Z,98875.34
2023-01-19T08:53:11.696Z,98886.72
2023-01-19T08:55:39.621Z,98889.91
2023-01-19T08:58:07.843Z,98884.16
2023-01-19T09:00:35.559Z,98898.03
2023-01-19T09:03:04.128Z,98906.59
2023-01-19T09:05:35.565Z,98909.88
2023-01-19T09:08:03.566Z,98905.97
2023-01-19T09:10:35.369Z,98914.34
2023-01-19T09:13:11.211Z,98903.88
2023-01-19T09:15:38.973Z,98908.91
2023-01-19T09:18:10.105Z,98907.25
2023-01-19T09:20:38.757Z,98905.72
2023-01-19T09:23:06.090Z,98903.59
2023-01-19T09:25:32.941Z,98908.94
2023-01-19T09:28:00.608Z,98919.31
2023-01-19T09:30:27.806Z,98921.50
2023-01-19T09:32:54.421Z,98927.44
2023-01-19T09:35:21.683Z,98923.66
2023-01-19T09:37:48.328Z,98915.09
2023-01-19T11:14:07.689Z,98882.03
2023-01-19T11:16:35.197Z,98881.31
2023-01-19T11:19:03.215Z,98872.72
2023-01-19T11:21:31.769Z,98876.28
2023-01-19T11:24:05.187Z,98877.25
2023-01-19T11:26:41.123Z,98880.81
2023-01-19T11:29:18.312Z,98878.53
2023-01-19T11:31:45.102Z,98878.31
2023-01-19T11:34:33.019Z,98867.81
2023-01-19T11:37:01.133Z,98856.50
2023-01-19T11:39:30.287Z,98860.09
2023-01-19T11:41:59.561Z,98853.19
2023-01-19T11:45:08.135Z,98854.47
2023-01-19T11:47:41.947Z,98852.72
2023-01-19T11:50:27.710Z,98850.31
2023-01-19T11:53:17.634Z,98845.78
2023-01-19T11:55:51.281Z,98848.59
2023-01-19T11:58:18.775Z,98855.75
2023-01-19T12:00:50.487Z,98852.41
2023-01-19T12:03:22.957Z,98848.97
2023-01-19T12:05:52.550Z,98854.22
2023-01-19T12:08:27.829Z,98848.97
2023-01-19T12:10:56.218Z,98852.50
2023-01-19T12:13:24.992Z,98846.59
2023-01-19T12:15:57.868Z,98843.94
2023-01-19T12:18:30.062Z,98853.81
2023-01-19T12:20:58.694Z,98848.72
2023-01-19T12:23:34.520Z,98843.94
2023-01-19T12:26:13.157Z,98844.88
2023-01-19T12:28:42.681Z,98843.22
2023-01-19T12:31:09.692Z,98845.84
2023-01-19T12:33:38.447Z,98843.66
2023-01-19T12:36:17.279Z,98850.44
2023-01-19T12:38:47.009Z,98843.41
2023-01-19T12:41:19.080Z,98840.22
2023-01-19T12:43:46.411Z,98838.69
2023-01-19T12:46:39.770Z,98836.00
2023-01-19T12:49:19.449Z,98836.50
2023-01-19T12:51:46.482Z,98834.16
2023-01-19T12:54:25.237Z,98840.47
2023-01-19T12:56:58.882Z,98837.72
2023-01-19T12:59:26.840Z,98843.66
2023-01-19T13:02:18.320Z,98836.19
2023-01-19T13:05:23.748Z,98833.22
2023-01-19T13:08:02.396Z,98831.19
2023-01-19T13:11:00.096Z,98834.91
2023-01-19T13:13:37.899Z,98831.06
2023-01-19T13:16:20.157Z,98828.44
2023-01-19T13:18:52.572Z,98827.75
2023-01-19T13:21:44.658Z,98834.91
2023-01-19T13:24:15.120Z,98834.31
2023-01-19T13:27:03.523Z,98824.94
2023-01-19T13:29:33.925Z,98828.75
2023-01-19T13:32:02.872Z,98830.16
2023-01-19T13:34:33.365Z,98824.28
2023-01-19T13:37:00.009Z,98827.47
2023-01-19T13:39:36.912Z,98832.03
2023-01-19T13:42:28.457Z,98833.22
2023-01-19T13:44:58.605Z,98835.03
2023-01-19T13:47:40.386Z,98840.28
2023-01-19T13:50:07.619Z,98840.41
2023-01-19T13:52:34.665Z,98853.38
2023-01-19T13:55:04.332Z,98859.00
2023-01-19T13:57:31.177Z,98856.50
2023-01-19T14:00:08.506Z,98863.94
2023-01-19T14:02:35.899Z,98861.91
2023-01-19T14:05:31.505Z,98865.22
2023-01-19T14:08:13.122Z,98867.84
2023-01-19T14:10:54.625Z,98859.06
2023-01-19T14:13:32.766Z,98864.53
2023-01-19T14:16:16.080Z,98869.44
2023-01-19T14:18:43.009Z,98857.16
2023-01-19T14:21:11.997Z,98860.81
2023-01-19T14:23:44.515Z,98848.09
2023-01-19T14:26:39.231Z,98848.78
2023-01-19T14:29:19.385Z,98849.88
2023-01-19T14:31:47.369Z,98855.34
2023-01-19T14:34:39.801Z,98848.56
2023-01-19T14:37:28.640Z,98852.16
2023-01-19T14:40:10.801Z,98855.50
2023-01-19T14:43:00.076Z,98866.22
2023-01-19T14:45:36.940Z,98860.97
2023-01-19T14:48:13.476Z,98860.97
2023-01-19T14:50:48.272Z,98865.72
2023-01-19T14:53:25.722Z,98861.56
2023-01-19T14:55:57.380Z,98851.91
2023-01-19T14:58:26.362Z,98859.66
2023-01-19T15:00:55.800Z,98858.84
2023-01-19T15:03:42.885Z,98862.66
2023-01-19T15:06:13.829Z,98881.94
2023-01-19T15:08:41.531Z,98885.53
2023-01-19T15:11:32.099Z,98890.28
2023-01-19T15:13:59.585Z,98885.28
2023-01-19T15:16:27.048Z,98883.38
2023-01-19T15:18:53.737Z,98885.53
2023-01-19T15:21:26.873Z,98879.28
2023-01-19T15:23:54.549Z,98879.31
2023-01-19T15:26:23.945Z,98877.56
2023-01-19T15:28:50.846Z,98882.91
2023-01-19T15:31:20.865Z,98887.56
2023-01-19T15:33:47.671Z,98894.59
2023-01-19T15:36:37.492Z,98886.03
2023-01-19T15:39:04.099Z,98893.53
2023-01-19T15:41:31.024Z,98891.28
2023-01-19T15:43:58.106Z,98893.19
2023-01-19T15:46:25.839Z,98894.81
2023-01-19T15:48:53.623Z,98894.34
2023-01-19T15:51:22.001Z,98892.19
2023-01-19T15:53:49.002Z,98897.94
2023-01-19T15:56:21.043Z,98895.19
2023-01-19T15:58:48.213Z,98896.91
2023-01-19T16:01:21.277Z,98890.28
2023-01-19T16:03:47.880Z,98894.31
2023-01-19T16:06:16.212Z,98896.72
2023-01-19T16:08:43.107Z,98890.78
2023-01-19T16:11:11.760Z,98896.97
2023-01-19T16:13:38.410Z,98892.19
2023-01-19T16:16:08.023Z,98894.81
2023-01-19T16:18:34.859Z,98902.09
2023-01-19T16:21:01.488Z,98901.00
2023-01-19T16:23:28.170Z,98902.34
2023-01-19T16:25:57.019Z,98904.16
2023-01-19T16:28:23.889Z,98903.44
2023-01-19T16:30:51.624Z,98906.28
2023-01-19T16:33:18.285Z,98903.66
2023-01-19T16:35:44.946Z,98907.25
2023-01-19T16:38:11.687Z,98906.53
2023-01-19T16:40:38.372Z,98904.81
2023-01-19T16:43:05.043Z,98897.38
2023-01-19T16:45:31.676Z,98903.44
2023-01-19T16:47:58.151Z,98907.25
2023-01-19T16:50:24.717Z,98908.09
2023-01-19T16:52:56.713Z,98910.00
2023-01-19T16:55:23.296Z,98918.00
2023-01-19T16:57:49.978Z,98911.78
2023-01-19T17:00:16.816Z,98911.50
2023-01-19T17:02:43.410Z,98907.00
2023-01-19T17:05:10.473Z,98916.09
2023-01-19T17:07:37.247Z,98911.75
2023-01-19T17:10:04.276Z,98912.25
2023-01-19T17:12:32.249Z,98909.16
2023-01-19T17:14:59.148Z,98907.72
2023-01-19T17:17:25.656Z,98911.25
2023-01-19T17:19:52.592Z,98900.66
2023-01-19T17:22:19.236Z,98906.28
2023-01-19T17:24:46.619Z,98897.25
2023-01-19T17:27:13.331Z,98892.63
2023-01-19T17:29:42.348Z,98889.03
2023-01-19T17:32:08.961Z,98892.72
2023-01-19T17:34:35.511Z,98893.09
2023-01-19T17:37:03.265Z,98891.31
2023-01-19T17:39:30.045Z,98891.66
2023-01-19T17:41:56.950Z,98893.44
2023-01-19T17:44:23.921Z,98889.78
2023-01-19T17:46:50.540Z,98892.03
2023-01-19T17:49:17.188Z,98898.34
2023-01-19T17:51:43.691Z,98900.84
2023-01-19T17:54:11.257Z,98901.78
2023-01-19T17:56:38.788Z,98899.56
2023-01-19T17:59:07.767Z,98897.78
2023-01-19T18:01:38.315Z,98897.25
2023-01-19T18:04:05.356Z,98903.44
2023-01-19T18:06:32.300Z,98897.59
2023-01-19T18:08:59.442Z,98893.31
2023-01-19T18:11:26.887Z,98881.06
2023-01-19T18:13:53.656Z,98882.06
2023-01-19T18:16:24.936Z,98889.66
2023-01-19T18:18:53.706Z,98891.22
2023-01-19T18:21:21.782Z,98890.78
2023-01-19T18:23:49.744Z,98891.38
2023-01-19T18:26:19.865Z,98891.03
2023-01-19T18:28:47.209Z,98888.16
2023-01-19T18:31:16.470Z,98898.53
2023-01-19T18:33:44.054Z,98899.81
2023-01-19T18:36:10.970Z,98899.59
2023-01-19T18:38:38.615Z,98900.69
2023-01-19T18:41:13.212Z,98894.00
2023-01-19T18:43:40.003Z,98897.44
2023-01-19T18:46:06.840Z,98892.19
2023-01-19T18:48:34.131Z,98890.19
2023-01-19T18:51:08.516Z,98899.81
2023-01-19T18:53:35.335Z,98891.03
2023-01-19T18:56:03.290Z,98895.56
2023-01-19T18:58:32.085Z,98898.53
2023-01-19T19:01:00.204Z,98900.56
2023-01-19T19:03:26.972Z,98905.31
2023-01-19T19:05:53.657Z,98900.56
2023-01-19T19:08:20.536Z,98903.19
2023-01-19T19:10:47.083Z,98904.75
2023-01-19T19:13:15.393Z,98902.59
2023-01-19T19:15:44.284Z,98903.31
2023-01-19T19:18:13.747Z,98906.16
2023-01-19T19:20:43.419Z,98912.38
2023-01-19T19:23:13.237Z,98913.66
2023-01-19T19:25:39.870Z,98913.19
2023-01-19T19:28:06.802Z,98920.94
2023-01-19T19:30:35.791Z,98909.72
2023-01-19T19:33:02.390Z,98925.09
2023-01-19T19:35:29.132Z,98914.28
2023-01-19T19:37:57.902Z,98923.44
2023-01-19T19:40:28.134Z,98924.28
2023-01-19T19:42:56.426Z,98927.63
2023-01-19T19:45:24.950Z,98926.44
2023-01-19T19:47:51.673Z,98924.50
2023-01-19T19:50:18.470Z,98930.94
2023-01-19T19:52:45.145Z,98931.91
2023-01-19T19:55:12.608Z,98942.38
2023-01-19T19:57:41.408Z,98938.81
2023-01-19T20:00:08.775Z,98945.59
2023-01-19T20:02:35.354Z,98947.75
2023-01-19T20:05:02.704Z,98940.00
2023-01-19T20:07:29.366Z,98943.59
2023-01-19T20:09:55.901Z,98936.91
2023-01-19T20:12:22.625Z,98947.84
2023-01-19T20:14:49.713Z,98942.97
2023-01-19T20:17:16.376Z,98943.81
2023-01-19T20:19:43.808Z,98945.72
2023-01-19T20:22:10.563Z,98955.00
2023-01-19T20:24:37.223Z,98957.16
2023-01-19T20:27:06.694Z,98959.03
2023-01-19T20:29:33.502Z,98957.88
2023-01-19T20:32:00.192Z,98956.44
2023-01-19T20:34:31.449Z,98962.63
2023-01-19T20:36:59.644Z,98965.47
2023-01-19T20:39:26.153Z,98970.00
2023-01-19T20:41:52.788Z,98968.09
2023-01-19T20:44:24.324Z,98970.13
2023-01-19T20:46:51.109Z,98967.16
2023-01-19T20:49:18.238Z,98964.44
2023-01-19T20:51:47.268Z,98973.31
2023-01-19T20:54:15.843Z,98972.84
2023-01-19T20:56:43.326Z,98965.00
2023-01-19T20:59:11.881Z,98973.47
2023-01-19T21:01:39.174Z,98971.44
2023-01-19T21:04:06.654Z,98976.28
2023-01-19T21:06:33.378Z,98971.97
2023-01-19T21:08:59.916Z,98979.25
2023-01-19T21:11:27.759Z,98977.84
2023-01-19T21:13:56.544Z,98976.75
2023-01-19T21:16:24.845Z,98979.72
2023-01-19T21:18:51.546Z,98984.94
2023-01-19T21:21:29.731Z,98985.63
2023-01-19T21:23:58.282Z,98989.69
2023-01-19T21:26:25.099Z,98997.56
2023-01-19T21:28:51.685Z,99000.38
2023-01-19T21:31:18.457Z,99007.13
2023-01-19T21:33:45.216Z,99016.34
2023-01-19T21:36:11.810Z,99021.44
2023-01-19T21:38:39.540Z,99019.38
2023-01-19T21:41:08.437Z,99020.56
2023-01-19T21:43:36.167Z,99022.44
2023-01-19T21:46:17.428Z,99036.19
2023-01-19T21:48:44.113Z,99035.22
2023-01-19T21:51:10.566Z,99035.81
2023-01-19T21:53:37.537Z,99048.25
2023-01-19T21:56:08.659Z,99042.09
2023-01-19T21:58:35.722Z,99045.78
2023-01-19T22:01:11.127Z,99046.94
2023-01-19T22:03:38.145Z,99058.34
2023-01-19T22:06:06.233Z,99048.00
2023-01-19T22:08:33.076Z,99054.78
2023-01-19T22:11:19.438Z,99053.44
2023-01-19T22:13:46.523Z,99052.09
2023-01-19T22:16:15.672Z,99056.34
2023-01-19T22:18:44.249Z,99051.56
2023-01-19T22:21:15.835Z,99054.41
2023-01-19T22:23:43.273Z,99061.41
2023-01-19T22:26:11.298Z,99059.72
2023-01-19T22:28:38.130Z,99060.69
2023-01-19T22:31:06.750Z,99064.97
2023-01-19T22:33:33.395Z,99065.19
2023-01-19T22:36:16.232Z,99066.25
2023-01-19T22:38:43.691Z,99076.44
2023-01-19T22:41:14.483Z,99080.03
2023-01-19T22:43:41.378Z,99076.69
2023-01-19T22:46:08.800Z,99075.91
2023-01-19T22:48:35.586Z,99077.84
2023-01-19T22:51:02.618Z,99071.41
2023-01-19T22:53:30.834Z,99080.78
2023-01-19T22:55:57.502Z,99074.19
2023-01-19T22:58:24.157Z,99078.69
2023-01-19T23:00:50.801Z,99077.28
2023-01-19T23:03:17.426Z,99091.03
2023-01-19T23:05:44.125Z,99089.22
2023-01-19T23:08:10.628Z,99098.09
2023-01-19T23:10:39.990Z,99100.97
2023-01-19T23:13:06.628Z,99094.78
2023-01-19T23:15:34.426Z,99107.69
2023-01-19T23:18:00.986Z,99108.00
2023-01-19T23:20:27.638Z,99124.38
2023-01-19T23:22:54.195Z,99119.00
2023-01-19T23:25:20.779Z,99121.63
2023-01-19T23:27:47.413Z,99118.28
2023-01-19T23:30:14.207Z,99105.56
2023-01-19T23:32:46.943Z,99109.56
2023-01-19T23:35:14.775Z,99107.19
2023-01-19T23:37:42.085Z,99112.13
2023-01-19T23:40:10.719Z,99122.31
2023-01-19T23:42:37.361Z,99126.94
2023-01-19T23:45:04.340Z,99127.00
2023-01-19T23:47:31.040Z,99140.34
2023-01-19T23:49:57.584Z,99147.66
2023-01-19T23:52:24.222Z,99149.41
2023-01-19T23:54:50.961Z,99152.38
2023-01-19T23:57:17.676Z,99158.53
2023-01-19T23:59:44.506Z,99157.44
